Time;durP1;ratioP1;P1;durP2;ratioP2;P2;SDS_P1;SDS_P2;PMS_P1;PMS_P2;Temp;Humidity;BMP_temperature;BMP_pressure;BME280_temperature;BME280_humidity;BME280_pressure;Samples;Min_cycle;Max_cycle;Signal;HPM_P1;HPM_P2
2022/06/15 00:01:33;;;;;;;;;;;;;;;13.90;100.00;102010.19;2613501;36;20447;-58
2022/06/15 00:04:03;;;;;;;;;;;;;;;13.94;100.00;102017.06;2613065;36;19947;-60
2022/06/15 00:06:38;;;;;;;;;;;;;;;13.93;100.00;102003.66;2613843;36;20031;-59
2022/06/15 00:09:07;;;;;;;;;;;;;;;13.90;100.00;101999.34;2613307;36;19953;-59
2022/06/15 00:11:37;;;;;;;;;;;;;;;13.77;100.00;101998.69;2613661;36;19974;-60
2022/06/15 00:14:06;;;;;;;;;;;;;;;13.74;100.00;101998.94;2611748;36;19976;-60
2022/06/15 00:16:34;;;;;;;;;;;;;;;13.77;100.00;101990.56;2613000;36;19950;-60
2022/06/15 00:19:02;;;;;;;;;;;;;;;13.61;100.00;101999.09;2613216;36;19981;-60
2022/06/15 00:21:34;;;;;;;;;;;;;;;13.55;100.00;101999.63;2613166;36;19947;-60
2022/06/15 00:24:02;;;;;;;;;;;;;;;13.43;100.00;102002.34;2611398;36;20432;-61
2022/06/15 00:26:30;;;;;;;;;;;;;;;13.40;100.00;102001.75;2612151;36;19962;-59
2022/06/15 00:28:58;;;;;;;;;;;;;;;13.31;100.00;102003.34;2611762;36;19958;-58
2022/06/15 00:31:26;;;;;;;;;;;;;;;13.26;100.00;102002.84;2612091;36;19954;-59
2022/06/15 00:33:54;;;;;;;;;;;;;;;13.15;100.00;102007.28;2613632;31;19974;-60
2022/06/15 00:36:23;;;;;;;;;;;;;;;13.16;100.00;102008.13;2613251;31;19950;-59
2022/06/15 00:38:55;;;;;;;;;;;;;;;13.08;100.00;102010.59;2613082;31;19981;-61
2022/06/15 00:41:24;;;;;;;;;;;;;;;13.01;100.00;102006.69;2611272;36;19973;-61
2022/06/15 00:43:53;;;;;;;;;;;;;;;12.96;100.00;102009.75;2612959;36;20332;-60
2022/06/15 00:46:24;;;;;;;;;;;;;;;12.91;100.00;102010.13;2612647;31;20684;-61
2022/06/15 00:48:55;;;;;;;;;;;;;;;12.94;100.00;102004.47;2612312;36;20348;-62
2022/06/15 00:51:24;;;;;;;;;;;;;;;12.85;100.00;102004.34;2612230;36;20440;-60
2022/06/15 00:53:55;;;;;;;;;;;;;;;12.79;100.00;101997.59;2612978;31;19955;-59
2022/06/15 00:56:23;;;;;;;;;;;;;;;12.94;100.00;102009.00;2612083;36;20482;-59
2022/06/15 00:58:53;;;;;;;;;;;;;;;13.07;100.00;102011.59;2612050;36;19958;-60
2022/06/15 01:01:24;;;;;;;;;;;;;;;12.95;100.00;102011.56;2612672;36;19953;-60
2022/06/15 01:03:53;;;;;;;;;;;;;;;12.92;100.00;102002.88;2613218;36;20036;-58
2022/06/15 01:06:26;;;;;;;;;;;;;;;12.88;100.00;102006.78;2611932;31;19954;-60
2022/06/15 01:09:00;;;;;;;;;;;;;;;12.79;100.00;102003.88;2612706;31;19952;-59
2022/06/15 01:11:37;;;;;;;;;;;;;;;12.70;100.00;101995.63;2612160;36;20002;-58
2022/06/15 01:14:15;;;;;;;;;;;;;;;12.65;100.00;101996.00;2611974;36;19947;-61
2022/06/15 01:16:47;;;;;;;;;;;;;;;12.70;100.00;101995.63;2611822;36;19947;-59
2022/06/15 01:19:30;;;;;;;;;;;;;;;12.72;100.00;102002.63;2613102;36;19953;-60
2022/06/15 01:22:05;;;;;;;;;;;;;;;12.59;100.00;102002.75;2611561;36;19946;-60
2022/06/15 01:24:52;;;;;;;;;;;;;;;12.57;100.00;101999.31;2613017;36;19951;-61
2022/06/15 01:27:31;;;;;;;;;;;;;;;12.58;100.00;101989.38;2611157;36;19951;-60
2022/06/15 01:30:10;;;;;;;;;;;;;;;12.62;100.00;101991.69;2612735;36;19958;-59
2022/06/15 01:32:42;;;;;;;;;;;;;;;12.59;100.00;101991.94;2611782;36;20467;-61
2022/06/15 01:35:14;;;;;;;;;;;;;;;12.38;100.00;101989.09;2612624;36;20353;-59
2022/06/15 01:37:45;;;;;;;;;;;;;;;12.35;100.00;102000.13;2612190;36;19950;-59
2022/06/15 01:40:26;;;;;;;;;;;;;;;12.29;100.00;101997.03;2612533;36;19947;-59
2022/06/15 01:42:57;;;;;;;;;;;;;;;12.33;100.00;101993.13;2612132;36;19954;-58
2022/06/15 01:45:30;;;;;;;;;;;;;;;12.28;100.00;101990.78;2613025;36;19950;-59
2022/06/15 01:48:00;;;;;;;;;;;;;;;12.32;100.00;101992.25;2611764;36;19946;-59
2022/06/15 01:50:30;;;;;;;;;;;;;;;12.29;100.00;101983.53;2613132;31;19951;-59
2022/06/15 01:53:00;;;;;;;;;;;;;;;12.25;100.00;101989.19;2612342;36;19958;-58
2022/06/15 01:55:32;;;;;;;;;;;;;;;12.24;100.00;101987.47;2612126;36;19953;-60
2022/06/15 01:58:04;;;;;;;;;;;;;;;12.24;100.00;101987.47;2611697;36;19981;-58
2022/06/15 02:00:34;;;;;;;;;;;;;;;12.15;100.00;101982.78;2612243;31;19957;-59
2022/06/15 02:03:07;;;;;;;;;;;;;;;12.14;100.00;101985.59;2612169;36;19977;-60
2022/06/15 02:05:41;;;;;;;;;;;;;;;12.14;100.00;101972.97;2610787;36;19950;-59
2022/06/15 02:08:12;;;;;;;;;;;;;;;11.92;100.00;101974.59;2612733;31;19951;-59
2022/06/15 02:10:42;;;;;;;;;;;;;;;11.83;100.00;101975.28;2612750;36;19950;-59
2022/06/15 02:13:14;;;;;;;;;;;;;;;11.78;100.00;101974.78;2612296;36;19955;-59
2022/06/15 02:15:48;;;;;;;;;;;;;;;11.74;100.00;101971.44;2611162;36;20339;-59
2022/06/15 02:18:19;;;;;;;;;;;;;;;11.55;100.00;101974.66;2612306;36;19954;-59
2022/06/15 02:20:50;;;;;;;;;;;;;;;11.55;100.00;101971.97;2612426;36;19958;-59
2022/06/15 02:23:19;;;;;;;;;;;;;;;11.52;100.00;101964.13;2611541;36;19947;-60
2022/06/15 02:25:50;;;;;;;;;;;;;;;11.55;100.00;101963.88;2611789;36;19999;-60
2022/06/15 02:28:19;;;;;;;;;;;;;;;11.57;100.00;101956.56;2612875;36;19950;-61
2022/06/15 02:30:50;;;;;;;;;;;;;;;11.53;100.00;101955.06;2612089;36;19951;-60
2022/06/15 02:33:26;;;;;;;;;;;;;;;11.47;100.00;101958.22;2613189;36;20700;-59
2022/06/15 02:35:54;;;;;;;;;;;;;;;11.44;100.00;101957.59;2612037;31;19951;-59
2022/06/15 02:38:22;;;;;;;;;;;;;;;11.34;100.00;101952.03;2612882;31;19992;-58
2022/06/15 02:40:50;;;;;;;;;;;;;;;11.32;100.00;101951.28;2613232;36;19997;-59
2022/06/15 02:43:21;;;;;;;;;;;;;;;11.30;100.00;101947.84;2613165;36;20755;-60
2022/06/15 02:45:52;;;;;;;;;;;;;;;11.30;100.00;101956.78;2613284;36;20450;-60
2022/06/15 02:48:21;;;;;;;;;;;;;;;11.37;100.00;101954.50;2612213;36;19946;-59
2022/06/15 02:50:52;;;;;;;;;;;;;;;11.36;100.00;101948.22;2612361;36;20356;-59
2022/06/15 02:53:22;;;;;;;;;;;;;;;11.29;100.00;101951.50;2611861;36;19954;-59
2022/06/15 02:55:51;;;;;;;;;;;;;;;11.23;100.00;101947.41;2613070;36;20368;-59
2022/06/15 02:58:23;;;;;;;;;;;;;;;11.20;100.00;101948.53;2613093;36;20432;-59
2022/06/15 03:00:54;;;;;;;;;;;;;;;11.40;100.00;101948.88;2612079;36;20472;-59
2022/06/15 03:03:23;;;;;;;;;;;;;;;11.49;100.00;101948.19;2613582;36;19950;-58
2022/06/15 03:05:51;;;;;;;;;;;;;;;11.50;100.00;101949.91;2612757;36;19946;-59
2022/06/15 03:08:20;;;;;;;;;;;;;;;11.34;100.00;101949.34;2612796;36;19950;-58
2022/06/15 03:10:48;;;;;;;;;;;;;;;11.32;100.00;101956.66;2613246;31;20061;-59
2022/06/15 03:13:16;;;;;;;;;;;;;;;11.23;100.00;101952.81;2612807;36;19947;-61
2022/06/15 03:15:44;;;;;;;;;;;;;;;11.35;100.00;101951.03;2613801;36;20413;-60
2022/06/15 03:18:15;;;;;;;;;;;;;;;11.21;100.00;101949.38;2612163;31;19951;-58
2022/06/15 03:20:43;;;;;;;;;;;;;;;11.19;100.00;101946.81;2611828;36;19958;-60
2022/06/15 03:23:11;;;;;;;;;;;;;;;11.21;100.00;101944.84;2613276;36;19951;-59
2022/06/15 03:25:39;;;;;;;;;;;;;;;11.22;100.00;101938.50;2612983;31;19951;-59
2022/06/15 03:28:07;;;;;;;;;;;;;;;11.31;100.00;101942.34;2612890;36;20421;-61
2022/06/15 03:30:38;;;;;;;;;;;;;;;11.17;100.00;101945.19;2613668;31;20331;-60
2022/06/15 03:33:06;;;;;;;;;;;;;;;11.23;100.00;101947.41;2612598;36;19957;-60
2022/06/15 03:35:37;;;;;;;;;;;;;;;11.15;100.00;101949.84;2612624;31;19951;-59
2022/06/15 03:38:08;;;;;;;;;;;;;;;11.05;100.00;101945.09;2612688;36;20022;-60
2022/06/15 03:40:36;;;;;;;;;;;;;;;10.99;100.00;101947.41;2612297;36;19989;-59
2022/06/15 03:43:04;;;;;;;;;;;;;;;11.05;100.00;101952.34;2612432;36;19947;-60
2022/06/15 03:45:33;;;;;;;;;;;;;;;10.99;100.00;101950.09;2613934;36;19946;-58
2022/06/15 03:48:01;;;;;;;;;;;;;;;10.99;100.00;101944.72;2612357;36;20039;-59
2022/06/15 03:50:31;;;;;;;;;;;;;;;11.00;100.00;101952.69;2612159;36;19981;-59
2022/06/15 03:53:03;;;;;;;;;;;;;;;11.14;100.00;101951.66;2613540;36;19951;-60
2022/06/15 03:55:31;;;;;;;;;;;;;;;11.23;100.00;101952.81;2612412;36;19950;-60
2022/06/15 03:58:00;;;;;;;;;;;;;;;11.22;100.00;101946.56;2612636;36;20451;-61
2022/06/15 04:00:30;;;;;;;;;;;;;;;11.23;100.00;101942.03;2613596;31;19989;-59
2022/06/15 04:02:58;;;;;;;;;;;;;;;11.21;100.00;101954.78;2615237;36;19981;-61
2022/06/15 04:05:32;;;;;;;;;;;;;;;11.17;100.00;101954.16;2613642;54;19951;-58
2022/06/15 04:10:43;;;;;;;;;;;;;;;11.29;100.00;101956.88;2613011;36;19958;-60
2022/06/15 04:13:12;;;;;;;;;;;;;;;11.33;100.00;101961.94;2612294;36;19950;-60
2022/06/15 04:15:40;;;;;;;;;;;;;;;11.30;100.00;101954.09;2613628;36;19947;-59
2022/06/15 04:18:08;;;;;;;;;;;;;;;11.30;100.00;101953.22;2612368;36;19978;-59
2022/06/15 04:20:36;;;;;;;;;;;;;;;11.32;100.00;101956.66;2613034;36;19988;-59
2022/06/15 04:23:09;;;;;;;;;;;;;;;11.37;100.00;101949.09;2611943;36;19957;-59
2022/06/15 04:25:38;;;;;;;;;;;;;;;11.50;100.00;101949.91;2613359;31;19950;-60
2022/06/15 04:28:07;;;;;;;;;;;;;;;11.64;100.00;101956.09;2612302;36;19946;-59
2022/06/15 04:30:35;;;;;;;;;;;;;;;11.61;100.00;101950.94;2613249;36;19953;-61
2022/06/15 04:33:04;;;;;;;;;;;;;;;11.57;100.00;101951.16;2613069;36;19947;-58
2022/06/15 04:35:32;;;;;;;;;;;;;;;11.75;100.00;101958.84;2613436;36;19946;-61
2022/06/15 04:38:00;;;;;;;;;;;;;;;11.87;100.00;101955.19;2611036;36;19950;-60
2022/06/15 04:40:31;;;;;;;;;;;;;;;11.97;100.00;101958.09;2613268;36;19989;-60
2022/06/15 04:42:59;;;;;;;;;;;;;;;11.73;100.00;101953.56;2612910;31;20429;-59
2022/06/15 04:45:27;;;;;;;;;;;;;;;11.85;100.00;101949.06;2613210;36;19946;-60
2022/06/15 04:47:55;;;;;;;;;;;;;;;11.95;100.00;101959.19;2611849;36;19962;-60
2022/06/15 04:50:23;;;;;;;;;;;;;;;12.11;100.00;101953.47;2611943;36;19962;-59
2022/06/15 04:52:52;;;;;;;;;;;;;;;12.20;100.00;101953.59;2612273;36;19998;-61
2022/06/15 04:55:22;;;;;;;;;;;;;;;12.29;100.00;101946.59;2613320;36;19951;-59
2022/06/15 04:57:54;;;;;;;;;;;;;;;12.37;100.00;101954.13;2613658;36;19954;-60
2022/06/15 05:00:24;;;;;;;;;;;;;;;12.49;100.00;101958.53;2612798;31;20030;-60
2022/06/15 05:02:52;;;;;;;;;;;;;;;12.54;100.00;101958.16;2613016;36;19950;-58
2022/06/15 05:05:20;;;;;;;;;;;;;;;12.63;100.00;101954.72;2612032;36;20272;-60
2022/06/15 05:07:49;;;;;;;;;;;;;;;12.68;100.00;101948.97;2613170;36;19955;-61
2022/06/15 05:10:19;;;;;;;;;;;;;;;12.85;100.00;101961.13;2612203;36;19979;-60
2022/06/15 05:12:47;;;;;;;;;;;;;;;12.96;100.00;101950.31;2612689;36;19947;-60
2022/06/15 05:15:18;;;;;;;;;;;;;;;12.90;100.00;101946.25;2612508;36;19974;-60
2022/06/15 05:17:47;;;;;;;;;;;;;;;12.87;100.00;101956.47;2612484;36;19954;-61
2022/06/15 05:20:17;;;;;;;;;;;;;;;12.92;100.00;101954.22;2611759;36;19951;-60
2022/06/15 05:22:45;;;;;;;;;;;;;;;12.94;100.00;101955.84;2612580;36;19977;-60
2022/06/15 05:25:13;;;;;;;;;;;;;;;13.05;100.00;101962.22;2613027;36;20296;-60
2022/06/15 05:27:41;;;;;;;;;;;;;;;13.15;100.00;101960.47;2612706;36;20038;-61
2022/06/15 05:30:10;;;;;;;;;;;;;;;13.25;100.00;101956.03;2611788;31;20443;-62
2022/06/15 05:32:41;;;;;;;;;;;;;;;13.37;100.00;101956.00;2612807;36;19958;-61
2022/06/15 05:35:10;;;;;;;;;;;;;;;13.27;100.00;101956.75;2613750;31;20411;-60
2022/06/15 05:37:38;;;;;;;;;;;;;;;13.46;100.00;101950.69;2613641;36;20347;-62
2022/06/15 05:40:07;;;;;;;;;;;;;;;13.51;100.00;101954.88;2610839;36;19951;-60
2022/06/15 05:42:35;;;;;;;;;;;;;;;13.65;100.00;101952.72;2611128;36;20387;-61
2022/06/15 05:45:04;;;;;;;;;;;;;;;13.87;100.00;101955.44;2611526;36;19950;-61
2022/06/15 05:47:32;;;;;;;;;;;;;;;13.92;100.00;101951.34;2611261;36;19954;-60
2022/06/15 05:50:03;;;;;;;;;;;;;;;14.04;100.00;101945.88;2612950;36;19977;-60
2022/06/15 05:52:31;;;;;;;;;;;;;;;14.14;100.00;101954.94;2610970;36;19977;-59
2022/06/15 05:55:01;;;;;;;;;;;;;;;14.28;100.00;101945.59;2609719;36;19954;-60
2022/06/15 05:57:29;;;;;;;;;;;;;;;14.43;100.00;101952.41;2611092;36;20408;-61
2022/06/15 05:59:58;;;;;;;;;;;;;;;14.47;100.00;101944.84;2611588;31;19954;-62
2022/06/15 06:02:27;;;;;;;;;;;;;;;14.48;100.00;101946.56;2612127;36;20463;-58
2022/06/15 06:04:56;;;;;;;;;;;;;;;14.61;100.00;101944.53;2612915;31;20347;-59
2022/06/15 06:07:27;;;;;;;;;;;;;;;14.61;100.00;101944.53;2611637;36;19954;-59
2022/06/15 06:09:55;;;;;;;;;;;;;;;14.84;100.00;101950.59;2612806;36;20914;-61
2022/06/15 06:12:23;;;;;;;;;;;;;;;14.93;100.00;101946.22;2612811;36;19981;-60
2022/06/15 06:14:53;;;;;;;;;;;;;;;14.94;100.00;101942.50;2614282;31;19950;-60
2022/06/15 06:17:21;;;;;;;;;;;;;;;15.02;100.00;101948.09;2613329;36;20058;-60
2022/06/15 06:19:49;;;;;;;;;;;;;;;15.39;100.00;101947.44;2613642;36;19995;-59
2022/06/15 06:22:17;;;;;;;;;;;;;;;15.71;100.00;101945.47;2613838;36;20633;-59
2022/06/15 06:24:48;;;;;;;;;;;;;;;16.80;100.00;101947.81;2613671;36;20308;-61
2022/06/15 06:27:17;;;;;;;;;;;;;;;17.25;100.00;101948.84;2611871;36;19947;-59
2022/06/15 06:29:45;;;;;;;;;;;;;;;17.80;100.00;101951.44;2614004;36;20474;-60
2022/06/15 06:32:15;;;;;;;;;;;;;;;18.04;100.00;101939.91;2613016;31;19954;-62
2022/06/15 06:34:43;;;;;;;;;;;;;;;17.83;100.00;101934.78;2611967;36;19970;-60
2022/06/15 06:37:13;;;;;;;;;;;;;;;17.85;100.00;101946.34;2613685;36;19950;-61
2022/06/15 06:39:41;;;;;;;;;;;;;;;17.92;100.00;101934.84;2613299;36;20455;-60
2022/06/15 06:42:12;;;;;;;;;;;;;;;18.73;100.00;101939.13;2611598;36;19950;-61
2022/06/15 06:44:40;;;;;;;;;;;;;;;18.35;100.00;101936.69;2613586;36;20349;-60
2022/06/15 06:47:10;;;;;;;;;;;;;;;18.67;100.00;101940.63;2613101;36;19954;-61
2022/06/15 06:49:38;;;;;;;;;;;;;;;18.83;100.00;101939.84;2613787;36;19954;-62
2022/06/15 06:52:07;;;;;;;;;;;;;;;18.98;100.00;101944.72;2612853;36;20027;-62
2022/06/15 06:54:35;;;;;;;;;;;;;;;18.41;100.00;101943.38;2613328;36;19954;-62
2022/06/15 06:57:03;;;;;;;;;;;;;;;18.44;100.00;101940.34;2610482;36;19946;-61
2022/06/15 06:59:34;;;;;;;;;;;;;;;18.83;100.00;101953.50;2613322;31;19989;-62
2022/06/15 07:02:02;;;;;;;;;;;;;;;19.14;100.00;101957.53;2598330;36;19997;-60
2022/06/15 07:04:30;;;;;;;;;;;;;;;19.18;100.00;101965.22;2592566;36;19990;-59
2022/06/15 07:06:59;;;;;;;;;;;;;;;19.16;100.00;101953.63;2609842;36;20198;-61
2022/06/15 07:09:29;;;;;;;;;;;;;;;19.35;100.00;101957.09;2610673;36;19957;-60
2022/06/15 07:11:58;;;;;;;;;;;;;;;19.55;100.00;101965.81;2610781;31;20049;-60
2022/06/15 07:14:26;;;;;;;;;;;;;;;19.57;100.00;101958.34;2611711;36;19985;-61
2022/06/15 07:16:56;;;;;;;;;;;;;;;19.52;100.00;101966.16;2611571;31;19947;-61
2022/06/15 07:19:24;;;;;;;;;;;;;;;19.94;100.00;101965.19;2609534;36;19985;-60
2022/06/15 07:21:52;;;;;;;;;;;;;;;19.74;100.00;101967.38;2611014;36;19958;-61
2022/06/15 07:24:21;;;;;;;;;;;;;;;19.87;100.00;101973.22;2612038;36;19954;-61
2022/06/15 07:26:49;;;;;;;;;;;;;;;19.93;100.00;101975.28;2614504;36;19954;-61
2022/06/15 07:29:22;;;;;;;;;;;;;;;19.84;100.00;101979.03;2611173;54;19950;-62
2022/06/15 07:31:51;;;;;;;;;;;;;;;19.74;100.00;101967.38;2610797;36;19950;-59
2022/06/15 07:34:22;;;;;;;;;;;;;;;20.17;100.00;101970.84;2610656;31;19951;-59
2022/06/15 07:36:50;;;;;;;;;;;;;;;20.28;100.00;101967.72;2610941;36;19955;-59
2022/06/15 07:39:20;;;;;;;;;;;;;;;20.41;100.00;101971.81;2610697;36;19977;-60
2022/06/15 07:41:49;;;;;;;;;;;;;;;20.54;100.00;101974.88;2611069;36;20051;-59
2022/06/15 07:44:18;;;;;;;;;;;;;;;20.81;100.00;101967.28;2610811;31;20789;-61
2022/06/15 07:46:46;;;;;;;;;;;;;;;20.56;100.00;101967.31;2610934;36;20470;-60
2022/06/15 07:51:58;;;;;;;;;;;;;;;20.57;100.00;101968.19;2609675;36;19947;-59
2022/06/15 07:54:27;;;;;;;;;;;;;;;20.65;100.00;101963.53;2611310;36;19950;-60
2022/06/15 07:56:56;;;;;;;;;;;;;;;20.89;100.00;101963.66;2612300;36;19947;-60
2022/06/15 07:59:26;;;;;;;;;;;;;;;20.78;100.00;101962.16;2613624;36;20360;-60
2022/06/15 08:01:54;;;;;;;;;;;;;;;20.75;100.00;101960.63;2613242;36;19954;-58
2022/06/15 08:04:22;;;;;;;;;;;;;;;20.94;100.00;101961.25;2606368;36;19946;-58
2022/06/15 08:06:53;;;;;;;;;;;;;;;20.87;100.00;101960.25;2612597;36;19953;-60
2022/06/15 08:09:24;;;;;;;;;;;;;;;21.12;100.00;101966.47;2613334;36;19962;-59
2022/06/15 08:14:32;;;;;;;;;;;;;;;21.23;100.00;101968.81;2612089;36;20367;-60
2022/06/15 08:17:01;;;;;;;;;;;;;;;21.18;100.00;101968.47;2613094;36;19955;-59
2022/06/15 08:19:30;;;;;;;;;;;;;;;21.13;100.00;101970.91;2612331;36;19980;-60
2022/06/15 08:21:58;;;;;;;;;;;;;;;21.21;100.00;101965.38;2613273;36;20463;-61
2022/06/15 08:24:29;;;;;;;;;;;;;;;21.23;97.95;101970.66;2612618;36;19947;-61
2022/06/15 08:26:57;;;;;;;;;;;;;;;21.35;100.00;101964.63;2612092;31;20469;-59
2022/06/15 08:29:25;;;;;;;;;;;;;;;21.49;100.00;101979.41;2611781;36;20492;-60
2022/06/15 08:31:57;;;;;;;;;;;;;;;21.59;96.00;101972.88;2611827;31;19975;-59
2022/06/15 08:34:25;;;;;;;;;;;;;;;21.63;92.88;101972.34;2611978;31;19954;-61
2022/06/15 08:36:53;;;;;;;;;;;;;;;21.45;94.35;101958.03;2611952;36;19971;-60
2022/06/15 08:39:21;;;;;;;;;;;;;;;21.55;95.67;101963.31;2613209;36;20409;-60
2022/06/15 08:42:00;;;;;;;;;;;;;;;21.83;98.92;101960.88;2614810;47;19951;-60
2022/06/15 08:44:35;;;;;;;;;;;;;;;21.74;92.40;101951.03;2611086;31;19954;-61
2022/06/15 08:47:09;;;;;;;;;;;;;;;21.80;100.00;101950.28;2612165;31;19947;-61
2022/06/15 08:49:48;;;;;;;;;;;;;;;21.83;87.94;101955.38;2612121;36;20416;-59
2022/06/15 08:52:18;;;;;;;;;;;;;;;21.92;79.22;101967.97;2611245;36;20352;-60
2022/06/15 08:54:54;;;;;;;;;;;;;;;21.19;83.39;101959.25;2612112;36;19946;-59
2022/06/15 08:57:29;;;;;;;;;;;;;;;21.37;82.01;101967.16;2611740;36;20466;-59
2022/06/15 09:00:00;;;;;;;;;;;;;;;21.28;81.75;101960.88;2611716;36;20359;-61
2022/06/15 09:02:33;;;;;;;;;;;;;;;21.61;86.49;101963.47;2612271;36;20481;-59
2022/06/15 09:05:04;;;;;;;;;;;;;;;21.54;77.21;101962.47;2613809;36;20337;-59
2022/06/15 09:07:44;;;;;;;;;;;;;;;21.58;78.13;101969.28;2610602;36;19958;-60
2022/06/15 09:10:19;;;;;;;;;;;;;;;21.71;75.06;101965.94;2612430;31;19946;-59
2022/06/15 09:12:58;;;;;;;;;;;;;;;21.78;73.14;101963.34;2607383;36;20453;-60
2022/06/15 09:15:41;;;;;;;;;;;;;;;21.95;74.43;101953.94;2613103;36;19961;-60
2022/06/15 09:18:12;;;;;;;;;;;;;;;21.69;72.40;101971.59;2613298;36;19980;-60
2022/06/15 09:20:44;;;;;;;;;;;;;;;21.85;70.93;101964.31;2613482;36;20355;-61
2022/06/15 09:23:17;;;;;;;;;;;;;;;22.05;73.56;101967.38;2612224;36;20466;-61
2022/06/15 09:25:46;;;;;;;;;;;;;;;22.21;85.25;101969.09;2612337;36;19950;-61
2022/06/15 09:28:25;;;;;;;;;;;;;;;22.31;71.29;101958.72;2612499;31;19955;-61
2022/06/15 09:30:54;;;;;;;;;;;;;;;22.67;71.47;101963.50;2613170;36;19942;-59
2022/06/15 09:33:25;;;;;;;;;;;;;;;22.43;70.46;101961.03;2612552;36;19951;-61
2022/06/15 09:36:00;;;;;;;;;;;;;;;22.45;73.97;101964.44;2612723;31;19946;-59
2022/06/15 09:38:29;;;;;;;;;;;;;;;22.25;72.12;101961.38;2613097;36;19974;-60
2022/06/15 09:40:58;;;;;;;;;;;;;;;22.08;70.84;101963.41;2613092;36;19958;-60
2022/06/15 09:43:34;;;;;;;;;;;;;;;21.88;72.88;101955.72;2612526;36;19951;-60
2022/06/15 09:46:08;;;;;;;;;;;;;;;22.23;74.48;101961.53;2612985;31;19951;-59
2022/06/15 09:48:43;;;;;;;;;;;;;;;22.70;74.37;101945.78;2612777;36;19950;-60
2022/06/15 09:51:16;;;;;;;;;;;;;;;22.50;72.59;101945.53;2610806;36;19954;-60
2022/06/15 09:53:47;;;;;;;;;;;;;;;23.07;71.61;101932.94;2612796;36;19947;-62
2022/06/15 09:56:17;;;;;;;;;;;;;;;23.31;67.10;101926.31;2612230;36;19983;-60
2022/06/15 09:58:51;;;;;;;;;;;;;;;23.25;67.01;101924.34;2613302;31;19989;-61
2022/06/15 10:01:20;;;;;;;;;;;;;;;23.19;65.42;101927.84;2613407;36;19951;-60
2022/06/15 10:03:49;;;;;;;;;;;;;;;22.91;68.74;101931.31;2612663;36;19946;-64
2022/06/15 10:06:20;;;;;;;;;;;;;;;23.14;63.60;101920.19;2613327;36;19962;-61
2022/06/15 10:08:49;;;;;;;;;;;;;;;23.15;67.93;101926.56;2612479;36;19985;-59
2022/06/15 10:11:19;;;;;;;;;;;;;;;22.87;64.29;101929.97;2613836;36;20448;-59
2022/06/15 10:13:49;;;;;;;;;;;;;;;22.55;67.78;101910.97;2612238;36;22323;-60
2022/06/15 10:16:24;;;;;;;;;;;;;;;22.57;64.76;101908.06;2604712;36;19966;-60
2022/06/15 10:18:54;;;;;;;;;;;;;;;22.55;68.14;101913.72;2603392;36;19964;-58
2022/06/15 10:21:24;;;;;;;;;;;;;;;22.48;68.73;101914.69;2611784;36;19951;-60
2022/06/15 10:23:56;;;;;;;;;;;;;;;22.92;69.55;101911.03;2612237;36;19981;-61
2022/06/15 10:26:26;;;;;;;;;;;;;;;23.20;63.63;101907.56;2612324;31;19953;-59
2022/06/15 10:28:57;;;;;;;;;;;;;;;23.27;64.75;101914.00;2612519;36;19951;-59
2022/06/15 10:31:27;;;;;;;;;;;;;;;23.13;62.59;101912.13;2613094;36;20507;-58
2022/06/15 10:33:57;;;;;;;;;;;;;;;23.23;61.30;101910.81;2612127;36;19951;-58
2022/06/15 10:36:32;;;;;;;;;;;;;;;22.96;63.06;101912.34;2611468;36;20030;-59
2022/06/15 10:39:02;;;;;;;;;;;;;;;22.94;63.11;101925.44;2613250;36;19950;-62
2022/06/15 10:41:49;;;;;;;;;;;;;;;23.24;62.58;101920.72;2611934;36;19950;-60
2022/06/15 10:44:27;;;;;;;;;;;;;;;23.39;63.70;101911.59;2613432;36;19951;-59
2022/06/15 10:47:01;;;;;;;;;;;;;;;23.39;60.57;101906.94;2612253;36;19958;-60
2022/06/15 10:49:31;;;;;;;;;;;;;;;23.91;61.61;101899.41;2612703;36;20421;-59
2022/06/15 10:52:00;;;;;;;;;;;;;;;24.26;57.33;101904.06;2612811;36;19965;-60
2022/06/15 10:54:33;;;;;;;;;;;;;;;23.69;62.90;101912.31;2612188;36;19947;-60
2022/06/15 11:02:43;;;;;;;;;;;;;;;23.61;61.41;101915.19;2612529;36;20339;-61
2022/06/15 11:05:16;;;;;;;;;;;;;;;24.18;61.51;101912.50;2611170;36;19981;-60
2022/06/15 11:07:47;;;;;;;;;;;;;;;24.34;57.19;101912.19;2610745;36;19946;-60
2022/06/15 11:10:22;;;;;;;;;;;;;;;23.98;59.22;101901.34;2610554;36;19996;-59
2022/06/15 11:12:51;;;;;;;;;;;;;;;24.13;59.34;101907.59;2611479;36;19946;-62
2022/06/15 11:18:24;;;;;;;;;;;;;;;24.63;56.90;101904.72;2606811;31;19946;-60
2022/06/15 11:20:55;;;;;;;;;;;;;;;24.88;54.86;101909.72;2606392;36;19950;-61
2022/06/15 11:23:26;;;;;;;;;;;;;;;25.02;53.75;101911.47;2613721;36;20321;-60
2022/06/15 11:25:56;;;;;;;;;;;;;;;24.48;54.14;101904.84;2609381;31;19950;-59
2022/06/15 11:28:28;;;;;;;;;;;;;;;24.55;53.29;101900.22;2613376;36;20249;-60
2022/06/15 11:30:59;;;;;;;;;;;;;;;24.72;53.00;101900.78;2613340;36;20045;-60
2022/06/15 11:33:33;;;;;;;;;;;;;;;24.77;53.94;101894.66;2612883;36;20410;-61
2022/06/15 11:36:05;;;;;;;;;;;;;;;25.35;53.14;101888.69;2613579;36;20371;-60
2022/06/15 11:38:42;;;;;;;;;;;;;;;25.39;53.68;101895.47;2612525;36;20300;-60
2022/06/15 11:41:17;;;;;;;;;;;;;;;24.71;55.28;101890.81;2612977;31;19950;-60
2022/06/15 11:43:47;;;;;;;;;;;;;;;25.15;55.79;101888.63;2612249;36;19977;-59
2022/06/15 11:46:24;;;;;;;;;;;;;;;24.95;55.43;101896.81;2611647;36;19954;-61
2022/06/15 11:49:03;;;;;;;;;;;;;;;24.66;53.77;101887.81;2613386;31;19946;-60
2022/06/15 11:51:37;;;;;;;;;;;;;;;24.70;55.62;101891.84;2612156;36;19958;-60
2022/06/15 11:54:12;;;;;;;;;;;;;;;25.00;55.38;101884.13;2610711;31;19958;-58
2022/06/15 11:56:43;;;;;;;;;;;;;;;25.45;52.61;101883.59;2611453;36;19970;-59
2022/06/15 11:59:18;;;;;;;;;;;;;;;25.36;53.13;101885.72;2611743;36;20337;-59
2022/06/15 12:01:50;;;;;;;;;;;;;;;25.80;53.47;101885.31;2611876;36;19951;-60
2022/06/15 12:04:36;;;;;;;;;;;;;;;25.51;51.28;101884.66;2610299;36;19957;-60
2022/06/15 12:07:13;;;;;;;;;;;;;;;25.70;51.77;101885.75;2611965;36;19950;-59
2022/06/15 12:09:52;;;;;;;;;;;;;;;26.22;51.36;101873.00;2611316;36;19955;-60
2022/06/15 12:12:41;;;;;;;;;;;;;;;26.20;49.93;101868.75;2612009;36;19950;-59
2022/06/15 12:15:26;;;;;;;;;;;;;;;25.05;49.19;101882.66;2609247;36;20276;-59
2022/06/15 12:17:58;;;;;;;;;;;;;;;25.56;52.93;101875.75;2607921;31;19999;-59
2022/06/15 12:20:30;;;;;;;;;;;;;;;25.41;52.22;101873.22;2601087;36;20002;-60
2022/06/15 12:23:04;;;;;;;;;;;;;;;25.16;51.85;101880.16;2607555;36;19946;-60
2022/06/15 12:25:38;;;;;;;;;;;;;;;25.55;49.39;101868.56;2603028;36;19974;-60
2022/06/15 12:28:11;;;;;;;;;;;;;;;25.72;49.08;101864.31;2607188;31;20357;-60
2022/06/15 12:30:41;;;;;;;;;;;;;;;25.29;50.00;101860.03;2607333;36;19973;-59
2022/06/15 12:33:18;;;;;;;;;;;;;;;25.49;51.85;101868.34;2608825;36;19951;-59
2022/06/15 12:35:49;;;;;;;;;;;;;;;25.96;50.48;101862.81;2606769;36;19951;-60
2022/06/15 12:38:24;;;;;;;;;;;;;;;26.23;51.34;101863.63;2606175;36;20490;-59
2022/06/15 12:40:53;;;;;;;;;;;;;;;25.79;49.24;101867.91;2610006;36;19947;-60
2022/06/15 12:43:28;;;;;;;;;;;;;;;25.83;49.92;101866.44;2609119;36;19953;-61
2022/06/15 12:46:01;;;;;;;;;;;;;;;25.49;49.05;101873.84;2607808;36;20369;-59
2022/06/15 12:48:35;;;;;;;;;;;;;;;25.86;47.36;101873.44;2609031;36;19955;-61
2022/06/15 12:51:05;;;;;;;;;;;;;;;26.08;49.03;101871.31;2606692;31;19970;-61
2022/06/15 12:53:52;;;;;;;;;;;;;;;26.01;48.15;101871.31;2609314;36;19951;-59
2022/06/15 12:56:26;;;;;;;;;;;;;;;26.08;48.47;101863.03;2609402;36;19950;-61
2022/06/15 12:59:00;;;;;;;;;;;;;;;26.48;47.63;101867.59;2611049;36;19954;-60
2022/06/15 13:01:33;;;;;;;;;;;;;;;26.38;46.75;101868.03;2611244;31;20452;-61
2022/06/15 13:04:06;;;;;;;;;;;;;;;26.56;49.20;101867.34;2608629;36;19955;-60
2022/06/15 13:06:35;;;;;;;;;;;;;;;26.42;48.16;101871.25;2609787;36;19953;-60